Time;durP1;ratioP1;P1;durP2;ratioP2;P2;SDS_P1;SDS_P2;PMS_P1;PMS_P2;Temp;Humidity;BMP_temperature;BMP_pressure;BME280_temperature;BME280_humidity;BME280_pressure;Samples;Min_cycle;Max_cycle;Signal;HPM_P1;HPM_P2
2021/03/09 00:00:11;;;;;;;23.60;8.20;;;5.00;99.90;;;;;;5075517;28;20063;-71
2021/03/09 00:02:36;;;;;;;21.65;7.78;;;5.00;99.90;;;;;;5074578;28;20374;-71
2021/03/09 00:05:03;;;;;;;22.60;8.48;;;5.00;99.90;;;;;;5072973;28;20028;-71
2021/03/09 00:07:28;;;;;;;19.02;7.50;;;4.90;99.90;;;;;;5072899;28;20373;-72
2021/03/09 00:09:54;;;;;;;22.77;8.65;;;5.00;99.90;;;;;;5071770;28;20024;-70
2021/03/09 00:12:20;;;;;;;18.60;8.18;;;4.90;99.90;;;;;;5073251;28;20027;-70
2021/03/09 00:14:46;;;;;;;16.42;8.00;;;5.00;99.90;;;;;;5066175;28;20048;-70
2021/03/09 00:17:11;;;;;;;22.25;9.18;;;4.90;99.90;;;;;;5071863;28;20361;-70
2021/03/09 00:19:56;;;;;;;25.88;9.05;;;4.90;99.90;;;;;;5073146;28;20093;-70
2021/03/09 00:22:22;;;;;;;21.40;8.95;;;4.90;99.90;;;;;;5071884;28;20109;-72
2021/03/09 00:24:48;;;;;;;15.10;7.80;;;4.90;99.90;;;;;;5059466;28;20039;-70
2021/03/09 00:27:13;;;;;;;23.08;9.35;;;4.90;99.90;;;;;;5073162;28;20024;-70
2021/03/09 00:29:39;;;;;;;22.25;8.75;;;5.00;99.90;;;;;;5073089;28;20028;-70
2021/03/09 00:32:06;;;;;;;23.08;9.02;;;5.00;99.90;;;;;;5072237;28;20107;-69
2021/03/09 00:34:32;;;;;;;25.83;8.63;;;5.00;99.90;;;;;;5072528;28;20032;-71
2021/03/09 00:36:58;;;;;;;25.45;10.48;;;5.00;99.90;;;;;;5070260;28;20033;-70
2021/03/09 00:39:24;;;;;;;29.20;10.20;;;5.00;99.90;;;;;;5070408;28;20402;-68
2021/03/09 00:41:50;;;;;;;25.95;10.68;;;5.00;99.90;;;;;;5071784;28;20393;-70
2021/03/09 00:44:15;;;;;;;27.27;10.18;;;5.00;99.90;;;;;;5070778;28;20506;-71
2021/03/09 00:46:41;;;;;;;28.35;11.57;;;5.00;99.90;;;;;;5071044;28;20069;-70
2021/03/09 00:49:06;;;;;;;31.85;11.63;;;5.00;99.90;;;;;;5071124;28;20021;-70
2021/03/09 00:51:32;;;;;;;25.60;11.02;;;5.10;99.90;;;;;;5072387;28;20032;-72
2021/03/09 00:53:58;;;;;;;32.15;13.32;;;5.10;99.90;;;;;;5073112;28;20035;-71
2021/03/09 00:56:23;;;;;;;32.47;14.00;;;5.10;99.90;;;;;;5070926;28;20119;-72
2021/03/09 00:58:49;;;;;;;37.92;12.68;;;5.10;99.90;;;;;;5076824;28;20082;-72
2021/03/09 01:01:14;;;;;;;37.83;12.95;;;5.10;99.90;;;;;;5075086;28;20477;-71
2021/03/09 01:03:41;;;;;;;32.28;12.40;;;5.10;99.90;;;;;;5075227;28;20450;-71
2021/03/09 01:06:07;;;;;;;31.60;12.52;;;5.10;99.90;;;;;;5076564;28;20103;-72
2021/03/09 01:08:32;;;;;;;35.20;12.98;;;5.10;99.90;;;;;;5076569;28;20123;-70
2021/03/09 01:10:58;;;;;;;31.15;11.60;;;5.00;99.90;;;;;;5074853;28;20435;-70
2021/03/09 01:13:24;;;;;;;37.90;12.75;;;5.10;99.90;;;;;;5075546;28;20045;-71
2021/03/09 01:15:49;;;;;;;32.88;13.75;;;5.10;99.90;;;;;;5077252;28;20040;-70
2021/03/09 01:18:15;;;;;;;38.28;14.10;;;5.10;99.90;;;;;;5076607;28;20083;-70
2021/03/09 01:20:40;;;;;;;36.10;15.40;;;5.10;99.90;;;;;;5074935;28;20051;-70
2021/03/09 01:23:06;;;;;;;33.58;14.15;;;5.20;99.90;;;;;;5076161;28;20075;-71
2021/03/09 01:25:32;;;;;;;43.90;15.80;;;5.20;99.90;;;;;;5075665;28;20040;-71
2021/03/09 01:27:57;;;;;;;33.22;15.13;;;5.10;99.90;;;;;;5074553;28;20087;-71
2021/03/09 01:30:42;;;;;;;37.00;13.82;;;5.10;99.90;;;;;;5076117;28;20027;-70
2021/03/09 01:33:07;;;;;;;40.65;14.63;;;5.10;99.90;;;;;;5075550;28;20089;-70
2021/03/09 01:35:33;;;;;;;40.88;16.73;;;5.10;99.90;;;;;;5076048;28;20025;-72
2021/03/09 01:37:59;;;;;;;38.03;15.55;;;5.20;99.90;;;;;;5074468;28;20067;-71
2021/03/09 01:40:25;;;;;;;37.95;15.10;;;5.10;99.90;;;;;;5074334;28;20024;-71
2021/03/09 01:42:51;;;;;;;46.13;15.35;;;5.20;99.90;;;;;;5075762;28;20032;-71
2021/03/09 01:45:16;;;;;;;39.70;15.57;;;5.30;99.90;;;;;;5076273;28;20024;-71
2021/03/09 01:47:44;;;;;;;43.40;16.35;;;5.30;99.90;;;;;;5076074;28;20037;-71
2021/03/09 01:50:12;;;;;;;43.05;15.98;;;5.30;99.90;;;;;;5075352;28;20043;-70
2021/03/09 01:52:39;;;;;;;41.13;16.87;;;5.30;99.90;;;;;;5073803;28;20393;-71
2021/03/09 01:55:07;;;;;;;35.13;15.68;;;5.30;99.90;;;;;;5074385;28;20029;-71
2021/03/09 01:57:33;;;;;;;39.22;17.15;;;5.30;99.90;;;;;;5073949;28;20111;-69
2021/03/09 02:00:03;;;;;;;47.25;17.27;;;5.20;99.90;;;;;;5075279;28;20024;-71
2021/03/09 02:02:28;;;;;;;34.17;14.95;;;5.20;99.90;;;;;;5075099;28;20422;-71
2021/03/09 02:04:54;;;;;;;52.35;15.90;;;5.30;99.90;;;;;;5074194;28;20120;-71
2021/03/09 02:07:21;;;;;;;38.88;15.85;;;5.30;99.90;;;;;;5075392;28;20064;-71
2021/03/09 02:09:46;;;;;;;42.17;15.70;;;5.20;99.90;;;;;;5074855;28;20032;-71
2021/03/09 02:15:39;;;;;;;40.13;16.02;;;5.30;99.90;;;;;;5075456;28;20047;-70
2021/03/09 02:18:13;;;;;;;40.05;15.73;;;5.30;99.90;;;;;;5073684;28;20036;-70
2021/03/09 02:21:01;;;;;;;39.28;15.35;;;5.40;99.90;;;;;;5069547;28;20036;-70
2021/03/09 02:23:44;;;;;;;41.83;16.00;;;5.40;99.90;;;;;;5073663;28;20428;-70
2021/03/09 02:26:47;;;;;;;43.35;17.60;;;5.40;99.90;;;;;;5073149;28;20033;-71
2021/03/09 02:29:28;;;;;;;42.03;15.75;;;5.40;99.90;;;;;;5074897;28;20046;-70
2021/03/09 02:31:56;;;;;;;39.50;13.88;;;5.40;99.90;;;;;;5075223;28;20300;-70
2021/03/09 02:34:35;;;;;;;42.67;16.95;;;5.40;99.90;;;;;;5073238;28;20573;-70
2021/03/09 02:37:06;;;;;;;45.47;16.95;;;5.40;99.90;;;;;;5073941;28;20497;-71
2021/03/09 02:39:33;;;;;;;41.50;15.82;;;5.40;99.90;;;;;;5074523;28;20527;-71
2021/03/09 02:42:02;;;;;;;43.53;15.32;;;5.30;99.90;;;;;;5073776;28;20028;-70
2021/03/09 02:44:29;;;;;;;42.80;16.15;;;5.40;99.90;;;;;;5073865;28;20036;-70
2021/03/09 02:46:57;;;;;;;43.88;16.23;;;5.30;99.90;;;;;;5074765;28;20058;-71
2021/03/09 02:49:24;;;;;;;39.75;16.27;;;5.40;99.90;;;;;;5074657;28;20025;-70
2021/03/09 02:51:51;;;;;;;43.47;15.80;;;5.40;99.90;;;;;;5074704;28;20469;-71
2021/03/09 02:54:18;;;;;;;42.17;17.25;;;5.40;99.90;;;;;;5073640;28;20097;-71
2021/03/09 02:56:45;;;;;;;37.85;15.52;;;5.50;99.90;;;;;;5072946;28;20028;-71
2021/03/09 02:59:14;;;;;;;42.53;16.10;;;5.50;99.90;;;;;;5074297;28;20522;-71
2021/03/09 03:01:46;;;;;;;37.70;15.60;;;5.60;99.90;;;;;;5072828;28;20036;-70
2021/03/09 03:04:15;;;;;;;41.63;15.93;;;5.60;99.90;;;;;;5073885;28;20055;-70
2021/03/09 03:06:43;;;;;;;47.28;19.50;;;5.60;99.90;;;;;;5072889;28;20051;-70
2021/03/09 03:09:11;;;;;;;41.78;18.67;;;5.60;99.90;;;;;;5073004;28;20063;-69
2021/03/09 03:11:40;;;;;;;41.88;16.98;;;5.60;99.90;;;;;;5074349;28;20392;-71
2021/03/09 03:14:07;;;;;;;42.80;16.30;;;5.60;99.90;;;;;;5073730;28;20377;-70
2021/03/09 03:16:37;;;;;;;37.58;16.38;;;5.60;99.90;;;;;;5073821;28;20067;-71
2021/03/09 03:19:06;;;;;;;42.72;17.00;;;5.50;99.90;;;;;;5073277;28;20070;-71
2021/03/09 03:21:35;;;;;;;36.05;15.70;;;5.50;99.90;;;;;;5072449;28;20029;-71
2021/03/09 03:24:04;;;;;;;38.72;16.70;;;5.50;99.90;;;;;;5075543;28;20063;-71
2021/03/09 03:26:36;;;;;;;41.15;16.60;;;5.50;99.90;;;;;;5072342;28;20028;-71
2021/03/09 03:29:05;;;;;;;47.03;17.25;;;5.50;99.90;;;;;;5068484;28;20029;-71
2021/03/09 03:31:31;;;;;;;42.33;17.55;;;5.50;99.90;;;;;;5073579;28;20397;-72
2021/03/09 03:33:57;;;;;;;42.60;16.90;;;5.50;99.90;;;;;;5073946;28;20031;-72
2021/03/09 03:36:24;;;;;;;43.92;17.52;;;5.50;99.90;;;;;;5073986;28;20025;-72
2021/03/09 03:38:50;;;;;;;44.67;18.52;;;5.50;99.90;;;;;;5072287;28;20035;-73
2021/03/09 03:41:15;;;;;;;48.95;20.05;;;5.50;99.90;;;;;;5073368;28;20028;-72
2021/03/09 03:43:41;;;;;;;45.95;18.88;;;5.50;99.90;;;;;;5073376;28;20036;-71
2021/03/09 03:46:07;;;;;;;45.45;18.27;;;5.50;99.90;;;;;;5071776;28;20040;-72
2021/03/09 03:48:37;;;;;;;51.00;19.08;;;5.50;99.90;;;;;;5073311;28;20694;-72
2021/03/09 03:51:07;;;;;;;43.90;18.30;;;5.50;99.90;;;;;;5069025;28;20561;-72
2021/03/09 03:53:55;;;;;;;52.45;18.58;;;5.50;99.90;;;;;;5073590;28;20029;-72
2021/03/09 03:56:46;;;;;;;51.38;20.15;;;5.60;99.90;;;;;;5038314;28;20045;-70
2021/03/09 03:59:18;;;;;;;48.35;19.38;;;5.50;99.90;;;;;;5068016;28;20450;-69
2021/03/09 04:01:46;;;;;;;46.75;18.92;;;5.50;99.90;;;;;;5072144;28;20033;-69
2021/03/09 04:04:13;;;;;;;47.40;18.48;;;5.50;99.90;;;;;;5073367;28;20078;-70
2021/03/09 04:06:49;;;;;;;59.05;19.63;;;5.60;99.90;;;;;;5073524;28;20024;-70
2021/03/09 04:09:16;;;;;;;47.70;19.38;;;5.60;99.90;;;;;;5074609;28;20057;-71
2021/03/09 04:11:42;;;;;;;53.85;20.00;;;5.50;99.90;;;;;;5073648;28;20044;-71
2021/03/09 04:14:12;;;;;;;50.42;20.15;;;5.50;99.90;;;;;;5072075;28;20481;-70
2021/03/09 04:16:38;;;;;;;55.53;21.08;;;5.60;99.90;;;;;;5073287;28;20453;-70
2021/03/09 04:19:05;;;;;;;54.10;21.92;;;5.60;99.90;;;;;;5073378;28;20064;-69
2021/03/09 04:21:31;;;;;;;57.22;21.13;;;5.60;99.90;;;;;;5071670;28;20025;-70
2021/03/09 04:23:58;;;;;;;54.78;21.48;;;5.60;99.90;;;;;;5072134;28;20039;-70
2021/03/09 04:26:26;;;;;;;46.07;15.97;;;5.60;99.90;;;;;;5072636;28;20036;-70
2021/03/09 04:28:52;;;;;;;61.47;22.92;;;5.60;99.90;;;;;;5073075;28;20271;-69
2021/03/09 04:31:19;;;;;;;58.15;20.83;;;5.70;99.90;;;;;;5072950;28;20036;-71
2021/03/09 04:33:48;;;;;;;63.90;23.80;;;5.70;99.90;;;;;;5071001;28;20036;-70
2021/03/09 04:36:14;;;;;;;62.70;23.67;;;5.60;99.90;;;;;;5073016;28;20024;-70
2021/03/09 04:38:41;;;;;;;60.58;22.38;;;5.60;99.90;;;;;;5071665;28;20033;-70
2021/03/09 04:41:07;;;;;;;63.05;23.38;;;5.60;99.90;;;;;;5071887;28;20028;-70
2021/03/09 04:43:34;;;;;;;54.30;22.38;;;5.70;99.90;;;;;;5072612;28;20024;-70
2021/03/09 04:46:01;;;;;;;63.20;24.75;;;5.70;99.90;;;;;;5072542;28;20099;-70
2021/03/09 04:48:28;;;;;;;68.80;25.53;;;5.70;99.90;;;;;;5071806;28;20029;-70
2021/03/09 04:51:00;;;;;;;63.35;23.05;;;5.70;99.90;;;;;;5072564;28;20025;-70
2021/03/09 04:53:25;;;;;;;63.80;23.95;;;5.60;99.90;;;;;;5072869;28;20453;-71
2021/03/09 04:55:51;;;;;;;71.15;24.45;;;5.70;99.90;;;;;;5074428;28;20058;-70
2021/03/09 04:58:16;;;;;;;63.88;23.98;;;5.70;99.90;;;;;;5074377;28;20024;-71
2021/03/09 05:00:42;;;;;;;63.78;24.27;;;5.70;99.90;;;;;;5087058;28;20043;-70
2021/03/09 05:03:07;;;;;;;56.63;23.65;;;5.80;99.90;;;;;;5071329;28;20404;-70
2021/03/09 05:05:33;;;;;;;68.13;24.80;;;5.80;99.90;;;;;;5071072;28;20036;-70
2021/03/09 05:07:59;;;;;;;62.95;24.92;;;5.80;99.90;;;;;;5074388;28;20473;-71
2021/03/09 05:10:24;;;;;;;62.72;24.52;;;5.80;99.90;;;;;;5071871;28;20024;-71
2021/03/09 05:12:50;;;;;;;70.22;24.55;;;5.80;99.90;;;;;;5071194;28;20093;-71
2021/03/09 05:15:19;;;;;;;67.93;24.95;;;5.80;99.90;;;;;;5072824;28;20029;-70
2021/03/09 05:17:45;;;;;;;64.95;25.67;;;5.80;99.90;;;;;;5070599;28;20036;-70
2021/03/09 05:20:13;;;;;;;63.15;24.73;;;5.80;99.90;;;;;;5072762;28;20032;-71
2021/03/09 05:22:39;;;;;;;64.93;25.73;;;5.90;99.90;;;;;;5072390;28;20056;-70
2021/03/09 05:25:08;;;;;;;72.60;26.58;;;5.90;99.90;;;;;;5072362;28;20021;-71
2021/03/09 05:27:34;;;;;;;63.95;25.02;;;6.00;99.90;;;;;;5071850;28;20024;-69
2021/03/09 05:29:59;;;;;;;61.90;24.38;;;6.00;99.90;;;;;;5070472;28;20020;-70
2021/03/09 05:32:25;;;;;;;75.90;26.50;;;6.00;99.90;;;;;;5072689;28;20502;-72
2021/03/09 05:34:50;;;;;;;65.63;24.58;;;6.00;99.90;;;;;;5072585;28;20416;-69
2021/03/09 05:37:16;;;;;;;60.05;24.63;;;6.10;99.90;;;;;;5072559;28;20391;-69
2021/03/09 05:39:42;;;;;;;73.45;26.20;;;6.10;99.90;;;;;;5074263;28;20477;-69
2021/03/09 05:42:08;;;;;;;68.50;25.52;;;6.00;99.90;;;;;;5074787;28;20032;-70
2021/03/09 05:44:35;;;;;;;66.05;24.98;;;6.10;99.90;;;;;;5075779;28;20032;-69
2021/03/09 05:47:03;;;;;;;74.28;26.63;;;6.10;99.90;;;;;;5076127;28;20033;-70
2021/03/09 05:49:29;;;;;;;70.95;24.63;;;6.20;99.90;;;;;;5076684;28;20033;-70
2021/03/09 05:51:55;;;;;;;65.13;24.88;;;6.20;99.90;;;;;;5075816;28;20495;-70
2021/03/09 05:54:22;;;;;;;60.45;23.63;;;6.20;99.90;;;;;;5074730;28;20374;-71
2021/03/09 05:56:47;;;;;;;62.80;22.92;;;6.20;99.90;;;;;;5073698;28;20447;-71
2021/03/09 05:59:13;;;;;;;54.60;18.50;;;6.20;99.90;;;;;;5073677;28;20028;-71
2021/03/09 06:01:39;;;;;;;45.95;16.10;;;6.10;99.90;;;;;;5075513;28;20032;-70
2021/03/09 06:04:06;;;;;;;40.38;15.98;;;6.10;99.90;;;;;;5074184;28;20558;-71
2021/03/09 06:06:32;;;;;;;42.08;13.48;;;6.20;99.90;;;;;;5075818;28;20032;-70
2021/03/09 06:08:58;;;;;;;35.40;10.88;;;6.20;99.90;;;;;;5073352;28;20025;-71
2021/03/09 06:11:23;;;;;;;27.08;9.30;;;6.30;99.90;;;;;;5073976;28;20067;-71
2021/03/09 06:13:49;;;;;;;15.45;7.03;;;6.30;99.90;;;;;;5075466;28;20044;-71
2021/03/09 06:16:15;;;;;;;21.42;6.75;;;6.20;99.90;;;;;;5075147;28;20027;-71
2021/03/09 06:19:10;;;;;;;12.50;4.85;;;6.20;99.90;;;;;;5073543;28;20020;-72
2021/03/09 06:21:36;;;;;;;13.68;4.38;;;6.20;99.90;;;;;;5062652;28;20405;-71
2021/03/09 06:24:18;;;;;;;23.83;5.43;;;6.20;99.90;;;;;;5073894;28;20171;-72
2021/03/09 06:26:44;;;;;;;17.33;5.57;;;6.30;99.90;;;;;;5073876;28;20028;-72
2021/03/09 06:29:10;;;;;;;16.02;5.03;;;6.30;99.90;;;;;;5074949;28;20024;-71
2021/03/09 06:31:37;;;;;;;15.43;4.55;;;6.40;99.90;;;;;;5074276;28;20028;-71
2021/03/09 06:34:25;;;;;;;9.45;3.60;;;6.40;99.90;;;;;;5073527;28;20086;-71
2021/03/09 06:37:04;;;;;;;21.02;4.88;;;6.40;99.90;;;;;;5057151;28;20029;-72
2021/03/09 06:39:56;;;;;;;12.57;3.72;;;6.40;99.90;;;;;;5073520;28;20028;-72
2021/03/09 06:42:26;;;;;;;8.90;3.22;;;6.40;99.90;;;;;;5063789;28;20032;-71
2021/03/09 06:44:54;;;;;;;9.25;3.45;;;6.40;99.90;;;;;;5074675;28;20020;-72
2021/03/09 06:47:43;;;;;;;16.33;4.10;;;6.30;99.90;;;;;;5075049;28;20024;-72
2021/03/09 06:50:17;;;;;;;7.18;2.90;;;6.30;99.90;;;;;;5073603;28;20085;-72
2021/03/09 06:52:44;;;;;;;13.85;3.95;;;6.40;99.90;;;;;;5073180;28;20526;-72
2021/03/09 06:55:13;;;;;;;11.85;2.88;;;6.40;99.90;;;;;;5074340;28;20040;-72
2021/03/09 06:57:40;;;;;;;10.00;2.35;;;6.30;99.90;;;;;;5069606;28;20040;-72
2021/03/09 07:00:09;;;;;;;4.35;2.25;;;6.30;99.90;;;;;;5072385;28;20112;-72
2021/03/09 07:02:34;;;;;;;12.18;1.77;;;6.20;99.90;;;;;;5073514;28;20040;-72
2021/03/09 07:05:08;;;;;;;2.90;1.73;;;6.30;99.90;;;;;;5074355;28;20381;-72
2021/03/09 07:07:41;;;;;;;10.40;1.90;;;6.30;99.90;;;;;;5075533;28;20054;-72
2021/03/09 07:10:11;;;;;;;6.65;1.95;;;6.30;99.90;;;;;;5083530;28;20098;-72
2021/03/09 07:12:39;;;;;;;5.22;1.52;;;6.30;99.90;;;;;;5078278;28;20024;-72
2021/03/09 07:15:07;;;;;;;7.45;1.58;;;6.20;99.90;;;;;;5078350;28;20044;-72
2021/03/09 07:17:35;;;;;;;4.18;1.40;;;6.20;99.90;;;;;;5075734;28;20029;-72
2021/03/09 07:20:06;;;;;;;5.05;1.95;;;6.30;99.90;;;;;;5075232;28;20052;-73
2021/03/09 07:22:34;;;;;;;7.15;1.45;;;6.30;99.90;;;;;;5075093;28;20503;-72
2021/03/09 07:25:13;;;;;;;2.97;1.58;;;6.30;99.90;;;;;;5073199;28;20028;-72
2021/03/09 07:28:09;;;;;;;10.68;1.42;;;6.40;99.90;;;;;;5072726;28;20043;-71
2021/03/09 07:30:40;;;;;;;2.50;1.08;;;6.40;99.90;;;;;;5069311;28;20027;-73
2021/03/09 07:33:06;;;;;;;6.30;1.80;;;6.40;99.90;;;;;;5072435;28;20036;-72
2021/03/09 07:35:33;;;;;;;6.43;2.42;;;6.40;99.90;;;;;;5074156;28;20427;-71
2021/03/09 07:37:58;;;;;;;6.35;1.02;;;6.40;99.90;;;;;;5072177;28;20469;-72
2021/03/09 07:40:27;;;;;;;2.03;0.90;;;6.40;99.90;;;;;;5072415;28;20028;-72
2021/03/09 07:42:53;;;;;;;2.97;0.90;;;6.40;99.90;;;;;;5072255;28;20117;-72
2021/03/09 07:45:24;;;;;;;2.63;0.95;;;6.40;99.90;;;;;;5071846;28;20444;-72
2021/03/09 07:47:52;;;;;;;3.20;1.13;;;6.60;99.90;;;;;;5071355;28;20113;-72
2021/03/09 07:50:20;;;;;;;2.40;1.02;;;6.60;99.90;;;;;;5073859;28;20024;-73
2021/03/09 07:52:58;;;;;;;4.30;0.85;;;6.70;99.90;;;;;;5072659;28;20491;-72
2021/03/09 07:55:24;;;;;;;7.35;1.33;;;6.70;99.90;;;;;;5072355;28;20025;-72
2021/03/09 07:58:26;;;;;;;2.38;1.00;;;6.70;99.90;;;;;;5071572;28;20035;-72
2021/03/09 08:01:03;;;;;;;3.40;1.73;;;6.70;99.90;;;;;;5071955;28;20486;-72
2021/03/09 08:03:32;;;;;;;4.25;2.05;;;6.70;99.90;;;;;;5072063;28;20032;-72
2021/03/09 08:06:02;;;;;;;8.65;1.58;;;6.80;99.90;;;;;;5072014;28;20035;-72
2021/03/09 08:08:51;;;;;;;2.88;1.58;;;6.80;99.90;;;;;;5073058;28;20427;-72
2021/03/09 08:11:20;;;;;;;4.22;1.08;;;6.90;99.90;;;;;;5066828;28;20812;-72
2021/03/09 08:14:03;;;;;;;3.90;1.27;;;6.90;99.90;;;;;;5061734;28;20485;-72
2021/03/09 08:16:36;;;;;;;2.25;1.23;;;6.90;99.90;;;;;;5075034;28;20413;-72
2021/03/09 08:19:23;;;;;;;2.83;1.10;;;6.90;99.90;;;;;;5068913;28;20031;-73
2021/03/09 08:21:58;;;;;;;1.83;1.13;;;7.00;99.90;;;;;;5073584;28;20197;-72
2021/03/09 08:24:42;;;;;;;3.63;1.30;;;7.20;99.90;;;;;;5071114;28;20028;-74
2021/03/09 08:27:30;;;;;;;5.32;1.10;;;7.30;99.90;;;;;;5062267;28;20467;-72
2021/03/09 08:30:08;;;;;;;3.03;1.33;;;7.20;99.90;;;;;;5071242;28;20021;-73
2021/03/09 08:32:35;;;;;;;3.50;1.30;;;7.30;99.90;;;;;;5071152;28;20392;-73
2021/03/09 08:35:13;;;;;;;4.75;1.27;;;7.40;99.90;;;;;;5069538;28;20032;-73
2021/03/09 08:37:44;;;;;;;2.08;1.00;;;7.40;99.90;;;;;;5079913;28;20573;-73
2021/03/09 08:40:13;;;;;;;5.47;1.48;;;7.40;99.90;;;;;;5073188;28;20182;-73
2021/03/09 08:43:01;;;;;;;5.43;1.30;;;7.50;99.90;;;;;;5066233;28;20028;-73
2021/03/09 08:45:34;;;;;;;4.75;1.25;;;7.60;99.90;;;;;;5073745;28;20055;-73
2021/03/09 08:48:00;;;;;;;3.05;1.25;;;7.60;99.90;;;;;;5061840;28;20032;-73
2021/03/09 08:50:39;;;;;;;6.53;1.35;;;7.50;99.90;;;;;;5059055;28;20039;-75
2021/03/09 08:53:05;;;;;;;4.32;1.40;;;7.70;99.90;;;;;;5071052;28;20123;-73
2021/03/09 08:55:31;;;;;;;2.53;1.45;;;7.80;99.90;;;;;;5067346;28;20032;-73
2021/03/09 08:58:04;;;;;;;4.43;1.10;;;7.80;99.90;;;;;;5064941;28;20028;-73
2021/03/09 09:00:30;;;;;;;2.63;0.75;;;7.80;99.90;;;;;;5062922;28;20074;-73
2021/03/09 09:02:55;;;;;;;1.60;0.80;;;7.80;99.90;;;;;;5066000;28;20422;-75
2021/03/09 09:05:28;;;;;;;2.88;0.70;;;7.80;99.90;;;;;;5067507;28;20046;-74
2021/03/09 09:07:53;;;;;;;3.90;0.63;;;7.90;99.90;;;;;;5060380;28;20025;-75
2021/03/09 09:10:24;;;;;;;1.67;0.50;;;8.00;99.90;;;;;;5061985;28;20450;-74
2021/03/09 09:12:51;;;;;;;2.03;0.40;;;7.80;99.90;;;;;;5068415;28;20025;-73
2021/03/09 09:15:28;;;;;;;3.33;0.77;;;7.80;99.90;;;;;;5067101;28;20029;-74
2021/03/09 09:18:05;;;;;;;1.98;0.40;;;7.60;99.90;;;;;;5070232;28;20027;-71
2021/03/09 09:20:46;;;;;;;9.23;0.70;;;7.60;99.90;;;;;;5071832;28;20055;-71
2021/03/09 09:23:20;;;;;;;1.15;0.93;;;7.80;99.90;;;;;;5068377;28;20380;-72
2021/03/09 09:25:48;;;;;;;1.73;0.90;;;7.70;99.90;;;;;;5059371;28;20028;-72
2021/03/09 09:28:33;;;;;;;1.35;0.70;;;7.60;99.90;;;;;;5070331;28;20027;-72
2021/03/09 09:31:09;;;;;;;4.80;1.00;;;7.60;99.90;;;;;;5060907;28;20051;-73
2021/03/09 09:33:35;;;;;;;3.83;1.10;;;7.60;99.90;;;;;;5071568;28;20078;-74
2021/03/09 09:36:01;;;;;;;3.10;1.13;;;7.50;99.90;;;;;;5060908;28;20025;-73
2021/03/09 09:38:27;;;;;;;2.22;1.08;;;7.60;99.90;;;;;;5074946;28;20032;-71
2021/03/09 09:40:55;;;;;;;3.90;1.45;;;7.60;99.90;;;;;;5063060;28;20036;-73
2021/03/09 09:43:21;;;;;;;;;;;7.70;99.90;;;;;;5071016;28;20438;-73
2021/03/09 09:46:05;;;;;;;2.08;1.38;;;7.70;99.90;;;;;;5072544;28;20351;-73
2021/03/09 09:48:40;;;;;;;3.42;0.90;;;7.70;99.90;;;;;;5063807;28;20100;-73
2021/03/09 09:51:22;;;;;;;8.30;1.27;;;7.60;99.90;;;;;;5072187;28;20078;-72
2021/03/09 09:53:50;;;;;;;4.47;0.95;;;7.50;99.90;;;;;;5069264;28;20021;-73
2021/03/09 09:56:18;;;;;;;7.30;0.93;;;7.50;99.90;;;;;;5073074;28;20021;-73
2021/03/09 09:58:46;;;;;;;0.70;0.70;;;7.60;99.90;;;;;;5071838;28;20124;-72
2021/03/09 10:01:33;;;;;;;2.60;1.23;;;7.60;99.90;;;;;;5073439;28;20027;-72
2021/03/09 10:04:04;;;;;;;1.70;0.93;;;7.80;99.90;;;;;;5070936;28;20134;-72
2021/03/09 10:06:43;;;;;;;1.75;1.65;;;8.00;99.90;;;;;;5079533;28;20019;-72
2021/03/09 10:09:18;;;;;;;1.73;0.73;;;8.10;99.90;;;;;;5068289;28;20033;-72
2021/03/09 10:11:49;;;;;;;1.60;1.25;;;8.10;99.90;;;;;;5081357;28;20450;-71
2021/03/09 10:14:16;;;;;;;3.53;0.93;;;8.10;99.90;;;;;;5076466;28;20515;-73
2021/03/09 10:16:43;;;;;;;1.37;1.03;;;8.00;99.90;;;;;;5074738;28;20055;-72
2021/03/09 10:19:15;;;;;;;1.83;1.10;;;7.80;99.90;;;;;;5075711;28;20336;-73
2021/03/09 10:21:40;;;;;;;1.05;0.95;;;7.70;99.90;;;;;;5070158;28;20067;-73
2021/03/09 10:24:07;;;;;;;1.83;1.05;;;7.40;99.90;;;;;;5072799;28;20111;-72
2021/03/09 10:26:34;;;;;;;1.20;1.10;;;7.30;99.90;;;;;;5072154;28;20031;-72
2021/03/09 10:29:17;;;;;;;1.37;1.27;;;7.40;99.90;;;;;;5071856;28;20098;-73
2021/03/09 10:31:47;;;;;;;4.45;1.67;;;7.40;99.90;;;;;;5073123;28;20274;-72
2021/03/09 10:34:14;;;;;;;3.05;1.67;;;7.40;99.90;;;;;;5067295;28;20040;-72
2021/03/09 10:37:02;;;;;;;8.52;1.30;;;7.50;99.90;;;;;;5087022;28;20056;-73
2021/03/09 10:39:30;;;;;;;3.33;1.63;;;7.60;99.90;;;;;;5068190;28;20036;-74
2021/03/09 10:41:56;;;;;;;;;;;7.80;99.90;;;;;;5075818;28;20024;-73
2021/03/09 10:44:34;;;;;;;3.40;1.33;;;8.00;99.90;;;;;;5067861;28;20334;-72
2021/03/09 10:47:01;;;;;;;3.97;1.30;;;8.10;99.90;;;;;;5067673;28;20025;-73
2021/03/09 10:49:28;;;;;;;2.35;1.40;;;8.00;99.90;;;;;;5074864;28;20607;-73
2021/03/09 10:52:20;;;;;;;5.00;1.60;;;7.90;99.90;;;;;;5073372;28;20024;-73
2021/03/09 10:54:46;;;;;;;4.10;1.80;;;7.80;99.90;;;;;;5069105;28;20037;-75
2021/03/09 10:57:12;;;;;;;3.17;2.08;;;7.70;99.90;;;;;;5073554;28;20492;-73
2021/03/09 10:59:41;;;;;;;12.18;4.95;;;7.30;99.90;;;;;;5078183;28;20028;-73
2021/03/09 11:02:08;;;;;;;4.00;2.22;;;7.20;99.90;;;;;;5063834;28;20028;-73
2021/03/09 11:04:34;;;;;;;4.85;1.80;;;6.90;99.90;;;;;;5074090;28;20032;-73
2021/03/09 11:07:00;;;;;;;5.93;2.03;;;6.90;99.90;;;;;;5073044;28;20432;-74
2021/03/09 11:09:26;;;;;;;2.22;1.67;;;6.80;99.90;;;;;;5062188;28;20133;-74
2021/03/09 11:11:51;;;;;;;3.22;1.90;;;6.80;99.90;;;;;;5064125;28;20028;-73
2021/03/09 11:14:17;;;;;;;1.75;1.58;;;6.90;99.90;;;;;;5063885;28;20543;-72
2021/03/09 11:16:42;;;;;;;7.20;3.40;;;7.00;99.90;;;;;;5065215;28;20044;-73
2021/03/09 11:19:08;;;;;;;3.45;2.20;;;7.00;99.90;;;;;;5067793;28;20029;-72
2021/03/09 11:21:34;;;;;;;4.13;1.88;;;7.10;99.90;;;;;;5069527;28;20025;-72
2021/03/09 11:23:59;;;;;;;3.85;2.20;;;7.30;99.90;;;;;;5058121;28;20032;-72
2021/03/09 11:26:25;;;;;;;3.50;1.98;;;7.40;99.90;;;;;;5068141;28;20023;-73
2021/03/09 11:28:53;;;;;;;1.63;1.13;;;7.40;99.90;;;;;;5072401;28;20159;-72
2021/03/09 11:31:20;;;;;;;7.23;1.37;;;7.50;99.90;;;;;;5072705;28;20370;-71
2021/03/09 11:33:46;;;;;;;2.70;1.25;;;7.70;99.90;;;;;;5073030;28;20293;-72
2021/03/09 11:36:12;;;;;;;2.55;1.02;;;7.90;99.90;;;;;;5072567;28;20032;-72
2021/03/09 11:38:40;;;;;;;0.82;0.70;;;8.20;99.90;;;;;;5069237;28;20074;-73
2021/03/09 11:41:05;;;;;;;1.03;0.90;;;8.40;99.90;;;;;;5067763;28;20440;-73
2021/03/09 11:43:31;;;;;;;0.93;0.68;;;8.20;99.90;;;;;;5069489;28;20382;-73
2021/03/09 11:45:57;;;;;;;3.22;1.02;;;8.20;99.90;;;;;;5071109;28;20035;-73
2021/03/09 11:48:23;;;;;;;0.85;0.85;;;8.00;99.90;;;;;;5068880;28;20394;-73
2021/03/09 11:50:49;;;;;;;0.98;0.88;;;7.90;99.90;;;;;;5062789;28;20067;-73
2021/03/09 11:53:15;;;;;;;3.17;0.77;;;7.80;99.90;;;;;;5063360;28;20064;-72
2021/03/09 11:55:41;;;;;;;1.30;0.77;;;7.70;99.90;;;;;;5073718;28;20024;-71
2021/03/09 11:58:06;;;;;;;1.33;1.20;;;7.60;99.90;;;;;;5071651;28;20421;-71
2021/03/09 12:00:32;;;;;;;2.28;1.40;;;7.50;99.90;;;;;;5072723;28;20055;-72
2021/03/09 12:02:58;;;;;;;1.10;0.90;;;7.50;99.90;;;;;;5068790;28;20024;-72
2021/03/09 12:05:23;;;;;;;2.53;1.27;;;7.50;99.90;;;;;;5064800;28;20048;-73
2021/03/09 12:07:49;;;;;;;2.25;1.88;;;7.60;99.90;;;;;;5068991;28;20036;-72
2021/03/09 12:10:15;;;;;;;1.85;1.40;;;7.70;99.90;;;;;;5069186;28;20464;-72
2021/03/09 12:12:42;;;;;;;3.65;1.52;;;7.80;99.90;;;;;;5072037;28;20021;-73
2021/03/09 12:15:08;;;;;;;1.95;1.70;;;7.80;99.90;;;;;;5068927;28;20090;-72
2021/03/09 12:17:33;;;;;;;4.30;1.27;;;7.80;99.90;;;;;;5069872;28;20579;-71
2021/03/09 12:19:59;;;;;;;2.65;1.38;;;7.80;99.90;;;;;;5071425;28;20111;-72
2021/03/09 12:22:24;;;;;;;2.22;1.40;;;7.80;99.90;;;;;;5065350;28;20058;-71
2021/03/09 12:24:50;;;;;;;3.10;1.63;;;7.80;99.90;;;;;;5060993;28;20024;-72
2021/03/09 12:27:16;;;;;;;4.05;1.52;;;7.90;99.90;;;;;;5060965;28;20029;-72
2021/03/09 12:29:41;;;;;;;2.30;1.27;;;8.00;99.90;;;;;;5062017;28;20554;-73
2021/03/09 12:32:07;;;;;;;2.25;1.48;;;7.90;99.90;;;;;;5062397;28;20036;-73
2021/03/09 12:34:33;;;;;;;4.22;1.63;;;7.90;99.90;;;;;;5062331;28;20523;-73
2021/03/09 12:36:58;;;;;;;3.80;1.70;;;7.80;99.90;;;;;;5059637;28;20123;-73
2021/03/09 12:39:24;;;;;;;7.80;2.67;;;7.80;99.90;;;;;;5061749;28;20028;-73
2021/03/09 12:41:49;;;;;;;2.55;2.03;;;7.80;99.90;;;;;;5061933;28;20032;-73
2021/03/09 12:44:15;;;;;;;6.95;2.97;;;7.70;99.90;;;;;;5060734;28;20048;-73
2021/03/09 12:46:41;;;;;;;7.22;2.80;;;7.60;99.90;;;;;;5059373;28;20472;-71
2021/03/09 12:49:25;;;;;;;3.55;2.80;;;7.70;99.90;;;;;;5059868;28;20037;-73
2021/03/09 12:51:50;;;;;;;6.35;2.60;;;7.70;99.90;;;;;;5061767;28;20085;-73
2021/03/09 12:54:16;;;;;;;13.40;3.40;;;7.80;99.90;;;;;;5059305;28;20427;-76
2021/03/09 12:56:43;;;;;;;11.30;3.35;;;7.80;99.90;;;;;;5061722;28;20020;-74
2021/03/09 12:59:09;;;;;;;5.15;3.47;;;7.70;99.90;;;;;;5063956;28;20093;-75
2021/03/09 13:01:34;;;;;;;6.05;3.30;;;7.70;99.90;;;;;;5062749;28;20473;-75